SWA968 KBUR-KLAS
Flight info
| Callsign | SWA968 |
|---|---|
| Flight time | 0h 47m |
| Altitude | 29000 |
| Route | SLAPP2 MISEN RNDRZ4 |
| Aircraft | B738/M-SDE2E3FGHIRWXY/LB1 |
Departure
| Time | 2026-05-06 00:10 |
|---|---|
| Airport | Hollywood Burbank/Bob Hope Airport (KBUR) |
Arrival
| Time | 2026-05-06 00:57 |
|---|---|
| Airport | Harry Reid International Airport (KLAS) |
| Time | Latitude | Longitude | Altitude | Speed | Heading |
|---|---|---|---|---|---|
| 2026-05-05 23:27 | 34.19685 | -118.35197 | 710 ft | 0 kts | 180° |
| 2026-05-05 23:56 | 34.19689 | -118.35198 | 710 ft | 2 kts | 178° |
| 2026-05-05 23:57 | 34.19700 | -118.35198 | 718 ft | 0 kts | 178° |
| 2026-05-06 00:01 | 34.19712 | -118.35198 | 715 ft | 2 kts | 178° |
| 2026-05-06 00:01 | 34.19716 | -118.35199 | 714 ft | 0 kts | 178° |
| 2026-05-06 00:01 | 34.19705 | -118.35207 | 710 ft | 1 kts | 238° |
| 2026-05-06 00:01 | 34.19716 | -118.35235 | 715 ft | 8 kts | 290° |
| 2026-05-06 00:02 | 34.19718 | -118.35251 | 715 ft | 0 kts | 275° |
| 2026-05-06 00:02 | 34.19718 | -118.35261 | 714 ft | 6 kts | 275° |
| 2026-05-06 00:03 | 34.19720 | -118.35369 | 714 ft | 19 kts | 275° |
| 2026-05-06 00:03 | 34.19791 | -118.35508 | 720 ft | 18 kts | 330° |
| 2026-05-06 00:03 | 34.19903 | -118.35548 | 721 ft | 15 kts | 346° |
| 2026-05-06 00:03 | 34.20000 | -118.35577 | 727 ft | 13 kts | 349° |
| 2026-05-06 00:04 | 34.20078 | -118.35594 | 728 ft | 9 kts | 349° |
| 2026-05-06 00:04 | 34.20133 | -118.35608 | 729 ft | 10 kts | 348° |
| 2026-05-06 00:04 | 34.20246 | -118.35639 | 734 ft | 23 kts | 345° |
| 2026-05-06 00:04 | 34.20432 | -118.35693 | 740 ft | 29 kts | 348° |
| 2026-05-06 00:05 | 34.20762 | -118.35783 | 754 ft | 18 kts | 347° |
| 2026-05-06 00:05 | 34.20857 | -118.35809 | 763 ft | 11 kts | 347° |
| 2026-05-06 00:05 | 34.20908 | -118.35824 | 766 ft | 5 kts | 347° |
| 2026-05-06 00:06 | 34.20939 | -118.35833 | 768 ft | 7 kts | 346° |
| 2026-05-06 00:06 | 34.21023 | -118.35856 | 772 ft | 17 kts | 349° |
| 2026-05-06 00:06 | 34.21135 | -118.35889 | 780 ft | 14 kts | 336° |
| 2026-05-06 00:06 | 34.21156 | -118.35907 | 782 ft | 0 kts | 315° |
| 2026-05-06 00:09 | 34.21157 | -118.35908 | 782 ft | 2 kts | 315° |
| 2026-05-06 00:09 | 34.21188 | -118.35983 | 784 ft | 13 kts | 262° |
| 2026-05-06 00:09 | 34.21131 | -118.36021 | 783 ft | 14 kts | 173° |
| 2026-05-06 00:10 | 34.20880 | -118.35953 | 767 ft | 74 kts | 166° |
| 2026-05-06 00:10 | 34.20122 | -118.35751 | 750 ft | 144 kts | 169° |
| 2026-05-06 00:10 | 34.19129 | -118.35496 | 1407 ft | 154 kts | 169° |
| 2026-05-06 00:10 | 34.17998 | -118.35269 | 2029 ft | 175 kts | 173° |
| 2026-05-06 00:11 | 34.16696 | -118.34911 | 2433 ft | 206 kts | 166° |
| 2026-05-06 00:11 | 34.15217 | -118.34431 | 2694 ft | 233 kts | 167° |
| 2026-05-06 00:11 | 34.13599 | -118.33907 | 3169 ft | 246 kts | 167° |
| 2026-05-06 00:11 | 34.11926 | -118.33366 | 3747 ft | 251 kts | 166° |
| 2026-05-06 00:12 | 34.10231 | -118.32772 | 4319 ft | 256 kts | 172° |
| 2026-05-06 00:12 | 34.08407 | -118.32940 | 4436 ft | 271 kts | 198° |
| 2026-05-06 00:12 | 34.06764 | -118.33879 | 4141 ft | 255 kts | 216° |
| 2026-05-06 00:12 | 34.05675 | -118.35370 | 4181 ft | 235 kts | 248° |
| 2026-05-06 00:13 | 34.05470 | -118.37311 | 4131 ft | 237 kts | 272° |
| 2026-05-06 00:13 | 34.05814 | -118.39314 | 4343 ft | 253 kts | 296° |
| 2026-05-06 00:13 | 34.07045 | -118.40724 | 5239 ft | 243 kts | 334° |
| 2026-05-06 00:13 | 34.08671 | -118.41093 | 5980 ft | 246 kts | 358° |
| 2026-05-06 00:14 | 34.10379 | -118.40937 | 6798 ft | 244 kts | 5° |
| 2026-05-06 00:14 | 34.12070 | -118.40677 | 7470 ft | 248 kts | 6° |
| 2026-05-06 00:14 | 34.13769 | -118.40402 | 8289 ft | 241 kts | 6° |
| 2026-05-06 00:14 | 34.15352 | -118.40150 | 8966 ft | 245 kts | 6° |
| 2026-05-06 00:15 | 34.17077 | -118.39880 | 9478 ft | 259 kts | 6° |
| 2026-05-06 00:15 | 34.18924 | -118.39598 | 9913 ft | 277 kts | 6° |
| 2026-05-06 00:15 | 34.20904 | -118.39301 | 10488 ft | 296 kts | 6° |
| 2026-05-06 00:15 | 34.23042 | -118.38987 | 10760 ft | 323 kts | 6° |
| 2026-05-06 00:16 | 34.25336 | -118.38653 | 11281 ft | 338 kts | 6° |
| 2026-05-06 00:16 | 34.27690 | -118.38311 | 12124 ft | 343 kts | 7° |
| 2026-05-06 00:16 | 34.30074 | -118.37966 | 13018 ft | 347 kts | 7° |
| 2026-05-06 00:16 | 34.32478 | -118.37619 | 13892 ft | 350 kts | 7° |
| 2026-05-06 00:17 | 34.34928 | -118.37265 | 14594 ft | 357 kts | 7° |
| 2026-05-06 00:17 | 34.37404 | -118.36902 | 15392 ft | 360 kts | 8° |
| 2026-05-06 00:17 | 34.39866 | -118.36232 | 16078 ft | 366 kts | 18° |
| 2026-05-06 00:17 | 34.42264 | -118.35140 | 16833 ft | 370 kts | 21° |
| 2026-05-06 00:18 | 34.44678 | -118.33986 | 17551 ft | 375 kts | 23° |
| 2026-05-06 00:18 | 34.47006 | -118.32518 | 18278 ft | 380 kts | 32° |
| 2026-05-06 00:18 | 34.49129 | -118.30599 | 18656 ft | 380 kts | 39° |
| 2026-05-06 00:18 | 34.51133 | -118.28570 | 18891 ft | 380 kts | 40° |
| 2026-05-06 00:19 | 34.53153 | -118.26490 | 18971 ft | 382 kts | 40° |
| 2026-05-06 00:19 | 34.55176 | -118.24419 | 18974 ft | 377 kts | 40° |
| 2026-05-06 00:19 | 34.57203 | -118.22365 | 19016 ft | 384 kts | 40° |
| 2026-05-06 00:19 | 34.59283 | -118.20272 | 19410 ft | 392 kts | 40° |
| 2026-05-06 00:20 | 34.61422 | -118.18126 | 19429 ft | 403 kts | 40° |
| 2026-05-06 00:20 | 34.63551 | -118.15982 | 19379 ft | 391 kts | 41° |
| 2026-05-06 00:20 | 34.65336 | -118.13562 | 19368 ft | 381 kts | 55° |
| 2026-05-06 00:20 | 34.66644 | -118.10773 | 19373 ft | 379 kts | 65° |
| 2026-05-06 00:21 | 34.67468 | -118.07734 | 19373 ft | 381 kts | 77° |
| 2026-05-06 00:21 | 34.67973 | -118.04566 | 19379 ft | 383 kts | 78° |
| 2026-05-06 00:21 | 34.68476 | -118.01372 | 19380 ft | 385 kts | 78° |
| 2026-05-06 00:21 | 34.69000 | -117.98172 | 19377 ft | 388 kts | 78° |
| 2026-05-06 00:22 | 34.69359 | -117.94939 | 19409 ft | 394 kts | 84° |
| 2026-05-06 00:22 | 34.69548 | -117.91605 | 19958 ft | 396 kts | 85° |
| 2026-05-06 00:22 | 34.69724 | -117.88308 | 21058 ft | 386 kts | 85° |
| 2026-05-06 00:22 | 34.69904 | -117.85066 | 21876 ft | 385 kts | 84° |
| 2026-05-06 00:23 | 34.70095 | -117.81792 | 22363 ft | 391 kts | 84° |
| 2026-05-06 00:23 | 34.70294 | -117.78468 | 22866 ft | 397 kts | 84° |
| 2026-05-06 00:23 | 34.70493 | -117.75108 | 23462 ft | 400 kts | 85° |
| 2026-05-06 00:23 | 34.70646 | -117.71722 | 23963 ft | 403 kts | 85° |
| 2026-05-06 00:24 | 34.70772 | -117.68309 | 24413 ft | 407 kts | 86° |
| 2026-05-06 00:24 | 34.70895 | -117.64849 | 24833 ft | 412 kts | 86° |
| 2026-05-06 00:24 | 34.71023 | -117.61351 | 25228 ft | 416 kts | 85° |
| 2026-05-06 00:24 | 34.71157 | -117.57826 | 25728 ft | 417 kts | 85° |
| 2026-05-06 00:25 | 34.71292 | -117.54298 | 26246 ft | 418 kts | 85° |
| 2026-05-06 00:25 | 34.71559 | -117.50781 | 26708 ft | 419 kts | 79° |
| 2026-05-06 00:25 | 34.72253 | -117.47355 | 27181 ft | 418 kts | 71° |
| 2026-05-06 00:25 | 34.73157 | -117.44008 | 27840 ft | 414 kts | 70° |
| 2026-05-06 00:26 | 34.74067 | -117.40695 | 28564 ft | 410 kts | 70° |
| 2026-05-06 00:26 | 34.74964 | -117.37416 | 28971 ft | 409 kts | 70° |
| 2026-05-06 00:26 | 34.75851 | -117.34143 | 28961 ft | 407 kts | 70° |
| 2026-05-06 00:27 | 34.77607 | -117.27579 | 28968 ft | 408 kts | 71° |
| 2026-05-06 00:27 | 34.79340 | -117.21036 | 28944 ft | 409 kts | 71° |
| 2026-05-06 00:28 | 34.81075 | -117.14455 | 28924 ft | 408 kts | 71° |
| 2026-05-06 00:28 | 34.82807 | -117.07872 | 28902 ft | 407 kts | 71° |
| 2026-05-06 00:29 | 34.84528 | -117.01314 | 28904 ft | 406 kts | 71° |
| 2026-05-06 00:29 | 34.86246 | -116.94756 | 28904 ft | 406 kts | 71° |
| 2026-05-06 00:30 | 34.87960 | -116.88195 | 28903 ft | 406 kts | 71° |
| 2026-05-06 00:30 | 34.89668 | -116.81641 | 28907 ft | 406 kts | 71° |
| 2026-05-06 00:31 | 34.91365 | -116.75156 | 28895 ft | 400 kts | 69° |
| 2026-05-06 00:31 | 34.93928 | -116.69176 | 28905 ft | 397 kts | 55° |
| 2026-05-06 00:32 | 34.97075 | -116.63695 | 28447 ft | 395 kts | 55° |
| 2026-05-06 00:32 | 34.98633 | -116.60974 | 27928 ft | 388 kts | 55° |
| 2026-05-06 00:32 | 35.00156 | -116.58296 | 27414 ft | 382 kts | 55° |
| 2026-05-06 00:32 | 35.01657 | -116.55644 | 26894 ft | 377 kts | 55° |
| 2026-05-06 00:33 | 35.03139 | -116.53014 | 26359 ft | 374 kts | 55° |
| 2026-05-06 00:33 | 35.04601 | -116.50416 | 25846 ft | 370 kts | 55° |
| 2026-05-06 00:33 | 35.06054 | -116.47833 | 25330 ft | 367 kts | 55° |
| 2026-05-06 00:33 | 35.07501 | -116.45259 | 24800 ft | 366 kts | 55° |
| 2026-05-06 00:34 | 35.08934 | -116.42708 | 24307 ft | 363 kts | 55° |
| 2026-05-06 00:34 | 35.10390 | -116.40204 | 23868 ft | 360 kts | 51° |
| 2026-05-06 00:34 | 35.12045 | -116.37954 | 23599 ft | 353 kts | 47° |
| 2026-05-06 00:34 | 35.13760 | -116.35765 | 23306 ft | 362 kts | 46° |
| 2026-05-06 00:35 | 35.15526 | -116.33520 | 22990 ft | 370 kts | 46° |
| 2026-05-06 00:35 | 35.17315 | -116.31232 | 22680 ft | 374 kts | 46° |
| 2026-05-06 00:35 | 35.19100 | -116.28933 | 22386 ft | 370 kts | 46° |
| 2026-05-06 00:35 | 35.20841 | -116.26681 | 22097 ft | 368 kts | 46° |
| 2026-05-06 00:36 | 35.22597 | -116.24405 | 21819 ft | 366 kts | 47° |
| 2026-05-06 00:36 | 35.24311 | -116.22108 | 21542 ft | 365 kts | 48° |
| 2026-05-06 00:36 | 35.25991 | -116.19796 | 21271 ft | 364 kts | 48° |
| 2026-05-06 00:36 | 35.27669 | -116.17477 | 21001 ft | 364 kts | 48° |
| 2026-05-06 00:37 | 35.29354 | -116.15156 | 20734 ft | 364 kts | 48° |
| 2026-05-06 00:37 | 35.31045 | -116.12836 | 20464 ft | 365 kts | 48° |
| 2026-05-06 00:37 | 35.32739 | -116.10512 | 20189 ft | 366 kts | 47° |
| 2026-05-06 00:37 | 35.34436 | -116.08182 | 19914 ft | 366 kts | 47° |
| 2026-05-06 00:38 | 35.36132 | -116.05854 | 19643 ft | 366 kts | 47° |
| 2026-05-06 00:38 | 35.37806 | -116.03553 | 19377 ft | 366 kts | 47° |
| 2026-05-06 00:38 | 35.39515 | -116.01198 | 19096 ft | 365 kts | 47° |
| 2026-05-06 00:38 | 35.41183 | -115.98901 | 18830 ft | 365 kts | 47° |
| 2026-05-06 00:39 | 35.42888 | -115.96554 | 18557 ft | 364 kts | 47° |
| 2026-05-06 00:39 | 35.44547 | -115.94267 | 18293 ft | 363 kts | 47° |
| 2026-05-06 00:39 | 35.46226 | -115.91952 | 18000 ft | 362 kts | 47° |
| 2026-05-06 00:39 | 35.47891 | -115.89654 | 17703 ft | 360 kts | 47° |
| 2026-05-06 00:40 | 35.49546 | -115.87367 | 17540 ft | 355 kts | 47° |
| 2026-05-06 00:40 | 35.51185 | -115.85101 | 17269 ft | 354 kts | 47° |
| 2026-05-06 00:40 | 35.52816 | -115.82845 | 17015 ft | 353 kts | 47° |
| 2026-05-06 00:40 | 35.54435 | -115.80603 | 16759 ft | 348 kts | 47° |
| 2026-05-06 00:41 | 35.56023 | -115.78404 | 16489 ft | 339 kts | 47° |
| 2026-05-06 00:41 | 35.57569 | -115.76261 | 16237 ft | 330 kts | 47° |
| 2026-05-06 00:41 | 35.59073 | -115.74174 | 16003 ft | 322 kts | 47° |
| 2026-05-06 00:41 | 35.60550 | -115.72160 | 15845 ft | 312 kts | 46° |
| 2026-05-06 00:42 | 35.61979 | -115.70235 | 15701 ft | 306 kts | 46° |
| 2026-05-06 00:42 | 35.62932 | -115.68955 | 15593 ft | 304 kts | 46° |
| 2026-05-06 00:42 | 35.64812 | -115.66423 | 15414 ft | 303 kts | 46° |
| 2026-05-06 00:42 | 35.65770 | -115.65132 | 15314 ft | 303 kts | 46° |
| 2026-05-06 00:43 | 35.67655 | -115.62586 | 15109 ft | 304 kts | 46° |
| 2026-05-06 00:43 | 35.69081 | -115.60657 | 14956 ft | 305 kts | 46° |
| 2026-05-06 00:43 | 35.70506 | -115.58728 | 14799 ft | 304 kts | 46° |
| 2026-05-06 00:43 | 35.71926 | -115.56805 | 14646 ft | 303 kts | 46° |
| 2026-05-06 00:44 | 35.72927 | -115.55575 | 14529 ft | 301 kts | 39° |
| 2026-05-06 00:44 | 35.74652 | -115.54186 | 14401 ft | 299 kts | 29° |
| 2026-05-06 00:44 | 35.76462 | -115.52941 | 14246 ft | 298 kts | 28° |
| 2026-05-06 00:44 | 35.78273 | -115.51708 | 14100 ft | 296 kts | 28° |
| 2026-05-06 00:45 | 35.80065 | -115.50480 | 13949 ft | 293 kts | 29° |
| 2026-05-06 00:45 | 35.81843 | -115.49250 | 13804 ft | 295 kts | 29° |
| 2026-05-06 00:45 | 35.83635 | -115.48002 | 13657 ft | 295 kts | 29° |
| 2026-05-06 00:45 | 35.85412 | -115.46759 | 13466 ft | 293 kts | 29° |
| 2026-05-06 00:46 | 35.87178 | -115.45520 | 13316 ft | 290 kts | 29° |
| 2026-05-06 00:46 | 35.88926 | -115.44292 | 13163 ft | 290 kts | 29° |
| 2026-05-06 00:46 | 35.90687 | -115.43055 | 13005 ft | 292 kts | 29° |
| 2026-05-06 00:46 | 35.92460 | -115.41816 | 12742 ft | 294 kts | 29° |
| 2026-05-06 00:47 | 35.94241 | -115.40574 | 12495 ft | 294 kts | 29° |
| 2026-05-06 00:47 | 35.96022 | -115.39332 | 12238 ft | 295 kts | 29° |
| 2026-05-06 00:47 | 35.97809 | -115.38085 | 11981 ft | 295 kts | 29° |
| 2026-05-06 00:47 | 35.99558 | -115.36794 | 11712 ft | 292 kts | 37° |
| 2026-05-06 00:48 | 36.00845 | -115.34896 | 11442 ft | 289 kts | 62° |
| 2026-05-06 00:48 | 36.01442 | -115.32566 | 11199 ft | 292 kts | 83° |
| 2026-05-06 00:48 | 36.01430 | -115.30048 | 10970 ft | 294 kts | 91° |
| 2026-05-06 00:48 | 36.01296 | -115.27509 | 10709 ft | 297 kts | 92° |
| 2026-05-06 00:49 | 36.01146 | -115.24954 | 10472 ft | 299 kts | 92° |
| 2026-05-06 00:49 | 36.01001 | -115.22412 | 10212 ft | 295 kts | 92° |
| 2026-05-06 00:49 | 36.00865 | -115.19897 | 9977 ft | 290 kts | 92° |
| 2026-05-06 00:49 | 36.00738 | -115.17442 | 9719 ft | 284 kts | 92° |
| 2026-05-06 00:50 | 36.00619 | -115.15086 | 9462 ft | 273 kts | 92° |
| 2026-05-06 00:50 | 36.00501 | -115.12759 | 9196 ft | 263 kts | 92° |
| 2026-05-06 00:50 | 36.00390 | -115.10572 | 8955 ft | 254 kts | 92° |
| 2026-05-06 00:50 | 36.00280 | -115.08402 | 8721 ft | 247 kts | 92° |
| 2026-05-06 00:51 | 36.00175 | -115.06328 | 8516 ft | 244 kts | 92° |
| 2026-05-06 00:51 | 36.00068 | -115.04240 | 8313 ft | 243 kts | 92° |
| 2026-05-06 00:51 | 35.99962 | -115.02166 | 8084 ft | 242 kts | 92° |
| 2026-05-06 00:51 | 35.99889 | -115.00076 | 7784 ft | 246 kts | 90° |
| 2026-05-06 00:52 | 35.99879 | -114.97954 | 7460 ft | 248 kts | 90° |
| 2026-05-06 00:52 | 35.99874 | -114.95815 | 7154 ft | 250 kts | 90° |
| 2026-05-06 00:52 | 35.99968 | -114.93674 | 6833 ft | 252 kts | 75° |
| 2026-05-06 00:52 | 36.00795 | -114.91809 | 6503 ft | 247 kts | 44° |
| 2026-05-06 00:53 | 36.02140 | -114.90542 | 6205 ft | 240 kts | 26° |
| 2026-05-06 00:53 | 36.03719 | -114.90085 | 5881 ft | 231 kts | 353° |
| 2026-05-06 00:53 | 36.05235 | -114.90598 | 5597 ft | 226 kts | 332° |
| 2026-05-06 00:53 | 36.06573 | -114.91598 | 5291 ft | 225 kts | 316° |
| 2026-05-06 00:54 | 36.07350 | -114.93227 | 5000 ft | 222 kts | 278° |
| 2026-05-06 00:54 | 36.07404 | -114.95118 | 4757 ft | 220 kts | 269° |
| 2026-05-06 00:54 | 36.07394 | -114.97006 | 4533 ft | 219 kts | 269° |
| 2026-05-06 00:54 | 36.07390 | -114.98888 | 4257 ft | 216 kts | 269° |
| 2026-05-06 00:55 | 36.07385 | -115.00723 | 3983 ft | 210 kts | 270° |
| 2026-05-06 00:55 | 36.07382 | -115.02480 | 3705 ft | 199 kts | 269° |
| 2026-05-06 00:55 | 36.07379 | -115.04128 | 3466 ft | 184 kts | 269° |
| 2026-05-06 00:55 | 36.07376 | -115.05621 | 3255 ft | 163 kts | 270° |
| 2026-05-06 00:56 | 36.07374 | -115.06947 | 3031 ft | 147 kts | 269° |
| 2026-05-06 00:56 | 36.07372 | -115.08212 | 2813 ft | 147 kts | 269° |
| 2026-05-06 00:56 | 36.07366 | -115.09474 | 2642 ft | 147 kts | 269° |
| 2026-05-06 00:56 | 36.07363 | -115.10727 | 2382 ft | 143 kts | 270° |
| 2026-05-06 00:57 | 36.07367 | -115.11893 | 2204 ft | 134 kts | 271° |
| 2026-05-06 00:57 | 36.07370 | -115.13018 | 2077 ft | 125 kts | 270° |
| 2026-05-06 00:57 | 36.07365 | -115.13910 | 2098 ft | 74 kts | 269° |
| 2026-05-06 00:57 | 36.07369 | -115.14262 | 2111 ft | 24 kts | 277° |
| 2026-05-06 00:58 | 36.07409 | -115.14455 | 2119 ft | 21 kts | 295° |
| 2026-05-06 00:58 | 36.07454 | -115.14551 | 2121 ft | 0 kts | 301° |
| 2026-05-06 00:58 | 36.07465 | -115.14573 | 2122 ft | 9 kts | 300° |
| 2026-05-06 00:58 | 36.07543 | -115.14653 | 2130 ft | 17 kts | 353° |
| 2026-05-06 00:59 | 36.07659 | -115.14657 | 2131 ft | 17 kts | 360° |
| 2026-05-06 00:59 | 36.07772 | -115.14688 | 2128 ft | 17 kts | 331° |
| 2026-05-06 00:59 | 36.07881 | -115.14720 | 2128 ft | 16 kts | 14° |
| 2026-05-06 00:59 | 36.07955 | -115.14671 | 2125 ft | 0 kts | 27° |